Bertioga, Brazil
Current Conditions -  °F | °C
As of 8:00 AM on Sunday 25 Jan 2015 (Local Time) from SBGR Reporting Station
Clear Clear  
Wind Chill: 66°   Ceiling: Unl
Heat Index: 66°   Visibility: 6mi
Dew Point: 64°   Wind: 3mph
Humidity: 94%   Direction: 160°SSE
Pressure: 30.03"   Gusts: NA
Location:  23.85°S, 46.14°W
Report Text: SBGR 251000Z 16003KT CAVOK 19/18 Q1017
Loading
Personal Weather Stations






























Interactive Weather Map New forecast layout! Learn more

10-Day Weather Forecast

Advertisements
Track Severe Weather on mobile